sensor_id;sensor_type;location;lat;lon;timestamp;pressure;altitude;pressure_sealevel;temperature;humidity
47712;BME280;57457;51.634;5.886;2023-06-05T00:19:39;101900;;;14.9;80.0
47712;BME280;57457;51.634;5.886;2023-06-05T00:54:16;101900;;;14.1;81.2
47712;BME280;57457;51.634;5.886;2023-06-05T01:19:57;101900;;;13.5;82.0
47712;BME280;57457;51.634;5.886;2023-06-05T01:46:03;101900;;;13.0;82.4
47712;BME280;57457;51.634;5.886;2023-06-05T02:17:31;101900;;;12.5;83.0
47712;BME280;57457;51.634;5.886;2023-06-05T03:07:54;101900;;;12.2;83.6
47712;BME280;57457;51.634;5.886;2023-06-05T04:00:04;101900;;;10.7;84.7
47712;BME280;57457;51.634;5.886;2023-06-05T04:45:41;101900;;;10.9;84.9
47712;BME280;57457;51.634;5.886;2023-06-05T05:26:53;101900;;;11.0;83.2
47712;BME280;57457;51.634;5.886;2023-06-05T06:02:34;101900;;;11.5;82.3
47712;BME280;57457;51.634;5.886;2023-06-05T06:30:21;101900;;;12.1;80.7
47712;BME280;57457;51.634;5.886;2023-06-05T06:55:58;101900;;;12.8;79.7
47712;BME280;57457;51.634;5.886;2023-06-05T07:23:53;101900;;;13.4;78.5
47712;BME280;57457;51.634;5.886;2023-06-05T07:52:43;101900;;;14.2;77.0
47712;BME280;57457;51.634;5.886;2023-06-05T08:33:10;101900;;;15.7;72.6
47712;BME280;57457;51.634;5.886;2023-06-05T08:50:14;101900;;;16.3;70.5
47712;BME280;57457;51.634;5.886;2023-06-05T09:09:28;101900;;;17.1;65.9
47712;BME280;57457;51.634;5.886;2023-06-05T09:33:29;101900;;;18.2;60.0
47712;BME280;57457;51.634;5.886;2023-06-05T09:55:52;101900;;;19.6;57.8
47712;BME280;57457;51.634;5.886;2023-06-05T10:18:09;101900;;;20.8;54.8
47712;BME280;57457;51.634;5.886;2023-06-05T10:40:23;101900;;;21.8;52.5
47712;BME280;57457;51.634;5.886;2023-06-05T10:57:43;101900;;;23.0;49.8
47712;BME280;57457;51.634;5.886;2023-06-05T11:19:34;101900;;;23.9;50.2
47712;BME280;57457;51.634;5.886;2023-06-05T11:38:57;101800;;;24.5;47.5
47712;BME280;57457;51.634;5.886;2023-06-05T11:57:49;101800;;;24.9;48.6
47712;BME280;57457;51.634;5.886;2023-06-05T12:22:36;101800;;;25.4;47.9
47712;BME280;57457;51.634;5.886;2023-06-05T12:43:45;101800;;;25.6;46.2
47712;BME280;57457;51.634;5.886;2023-06-05T13:03:43;101800;;;26.1;43.7
47712;BME280;57457;51.634;5.886;2023-06-05T13:27:15;101800;;;26.4;44.7
47712;BME280;57457;51.634;5.886;2023-06-05T13:47:12;101700;;;26.7;39.9
47712;BME280;57457;51.634;5.886;2023-06-05T14:12:30;101700;;;26.9;43.5
47712;BME280;57457;51.634;5.886;2023-06-05T14:38:22;101700;;;27.2;39.6
47712;BME280;57457;51.634;5.886;2023-06-05T15:02:34;101700;;;27.2;40.0
47712;BME280;57457;51.634;5.886;2023-06-05T15:28:13;101700;;;27.6;39.9
47712;BME280;57457;51.634;5.886;2023-06-05T15:47:44;101700;;;27.9;40.8
47712;BME280;57457;51.634;5.886;2023-06-05T16:13:54;101600;;;28.0;39.6
47712;BME280;57457;51.634;5.886;2023-06-05T16:38:50;101600;;;28.0;41.0
47712;BME280;57457;51.634;5.886;2023-06-05T16:59:28;101600;;;27.7;43.4
47712;BME280;57457;51.634;5.886;2023-06-05T17:23:04;101600;;;26.8;46.4
47712;BME280;57457;51.634;5.886;2023-06-05T17:42:53;101600;;;25.6;49.5
47712;BME280;57457;51.634;5.886;2023-06-05T18:37:33;101600;;;23.8;51.5
47712;BME280;57457;51.634;5.886;2023-06-05T19:11:59;101600;;;23.2;57.2
47712;BME280;57457;51.634;5.886;2023-06-05T19:39:52;101600;;;22.4;60.3
47712;BME280;57457;51.634;5.886;2023-06-05T20:00:55;101600;;;21.6;64.0
47712;BME280;57457;51.634;5.886;2023-06-05T20:25:30;101600;;;20.8;66.9
47712;BME280;57457;51.634;5.886;2023-06-05T20:59:29;101700;;;20.1;71.0
47712;BME280;57457;51.634;5.886;2023-06-05T21:52:05;101700;;;18.4;75.4
47712;BME280;57457;51.634;5.886;2023-06-05T22:17:45;101700;;;17.7;77.0
47712;BME280;57457;51.634;5.886;2023-06-05T22:44:09;101700;;;17.0;78.5
47712;BME280;57457;51.634;5.886;2023-06-05T23:08:40;101700;;;16.3;80.2
47712;BME280;57457;51.634;5.886;2023-06-05T23:35:09;101700;;;15.7;80.1
